sensor_id;sensor_type;location;lat;lon;timestamp;pressure;altitude;pressure_sealevel;temperature;humidity
70206;BME280;57593;55.896;37.396;2022-12-18T00:00:02;98978.13;;;-3.50;100.00
70206;BME280;57593;55.896;37.396;2022-12-18T00:00:33;98971.06;;;-3.27;100.00
70206;BME280;57593;55.896;37.396;2022-12-18T00:01:16;98971.50;;;-3.35;100.00
70206;BME280;57593;55.896;37.396;2022-12-18T00:01:47;98966.59;;;-3.37;100.00
70206;BME280;57593;55.896;37.396;2022-12-18T00:02:18;98965.41;;;-3.24;100.00
70206;BME280;57593;55.896;37.396;2022-12-18T00:02:49;98962.47;;;-3.38;100.00
70206;BME280;57593;55.896;37.396;2022-12-18T00:03:19;98957.53;;;-3.39;100.00
70206;BME280;57593;55.896;37.396;2022-12-18T00:03:51;98957.59;;;-3.29;100.00
70206;BME280;57593;55.896;37.396;2022-12-18T00:04:24;98949.69;;;-3.55;100.00
70206;BME280;57593;55.896;37.396;2022-12-18T00:04:55;98959.19;;;-3.61;100.00
70206;BME280;57593;55.896;37.396;2022-12-18T00:05:25;98958.97;;;-3.54;100.00
70206;BME280;57593;55.896;37.396;2022-12-18T00:05:56;98955.66;;;-3.49;100.00
70206;BME280;57593;55.896;37.396;2022-12-18T00:06:28;98959.88;;;-3.38;100.00
70206;BME280;57593;55.896;37.396;2022-12-18T00:06:59;98949.47;;;-3.48;100.00
70206;BME280;57593;55.896;37.396;2022-12-18T00:07:30;98952.38;;;-3.39;100.00
70206;BME280;57593;55.896;37.396;2022-12-18T00:08:00;98948.94;;;-3.50;100.00
70206;BME280;57593;55.896;37.396;2022-12-18T00:08:31;98955.88;;;-3.51;100.00
70206;BME280;57593;55.896;37.396;2022-12-18T00:09:03;98953.78;;;-3.59;100.00
70206;BME280;57593;55.896;37.396;2022-12-18T00:09:34;98947.47;;;-3.41;100.00
70206;BME280;57593;55.896;37.396;2022-12-18T00:10:05;98949.69;;;-3.55;100.00
70206;BME280;57593;55.896;37.396;2022-12-18T00:10:36;98943.06;;;-3.40;100.00
70206;BME280;57593;55.896;37.396;2022-12-18T00:11:08;98939.25;;;-3.70;100.00
70206;BME280;57593;55.896;37.396;2022-12-18T00:11:41;98948.09;;;-3.61;100.00
70206;BME280;57593;55.896;37.396;2022-12-18T00:12:11;98939.84;;;-3.58;100.00
70206;BME280;57593;55.896;37.396;2022-12-18T00:12:42;98946.78;;;-3.58;100.00
70206;BME280;57593;55.896;37.396;2022-12-18T00:13:12;98938.06;;;-3.52;100.00
70206;BME280;57593;55.896;37.396;2022-12-18T00:13:43;98943.22;;;-3.52;100.00
70206;BME280;57593;55.896;37.396;2022-12-18T00:14:14;98937.53;;;-3.54;100.00
70206;BME280;57593;55.896;37.396;2022-12-18T00:14:45;98934.19;;;-3.55;100.00
70206;BME280;57593;55.896;37.396;2022-12-18T00:15:16;98937.03;;;-3.56;100.00
70206;BME280;57593;55.896;37.396;2022-12-18T00:15:46;98934.59;;;-3.68;100.00
70206;BME280;57593;55.896;37.396;2022-12-18T00:16:19;98940.25;;;-3.71;100.00
70206;BME280;57593;55.896;37.396;2022-12-18T00:16:51;98937.19;;;-3.68;100.00
70206;BME280;57593;55.896;37.396;2022-12-18T00:17:21;98925.09;;;-3.63;100.00
70206;BME280;57593;55.896;37.396;2022-12-18T00:17:52;98930.72;;;-3.71;100.00
70206;BME280;57593;55.896;37.396;2022-12-18T00:18:23;98929.03;;;-3.87;100.00
70206;BME280;57593;55.896;37.396;2022-12-18T00:18:55;98926.00;;;-3.79;100.00
70206;BME280;57593;55.896;37.396;2022-12-18T00:19:28;98928.16;;;-3.71;100.00
70206;BME280;57593;55.896;37.396;2022-12-18T00:19:59;98928.97;;;-3.60;100.00
70206;BME280;57593;55.896;37.396;2022-12-18T00:20:30;98929.44;;;-3.68;100.00
70206;BME280;57593;55.896;37.396;2022-12-18T00:21:02;98932.53;;;-3.66;100.00
70206;BME280;57593;55.896;37.396;2022-12-18T00:21:33;98922.88;;;-3.81;100.00
70206;BME280;57593;55.896;37.396;2022-12-18T00:22:04;98930.59;;;-3.86;100.00
70206;BME280;57593;55.896;37.396;2022-12-18T00:22:36;98917.69;;;-3.86;100.00
70206;BME280;57593;55.896;37.396;2022-12-18T00:23:07;98922.03;;;-3.59;100.00
70206;BME280;57593;55.896;37.396;2022-12-18T00:23:39;98927.97;;;-3.59;100.00
70206;BME280;57593;55.896;37.396;2022-12-18T00:24:10;98922.19;;;-3.71;100.00
70206;BME280;57593;55.896;37.396;2022-12-18T00:24:41;98923.16;;;-3.77;100.00
70206;BME280;57593;55.896;37.396;2022-12-18T00:25:12;98924.50;;;-3.75;100.00
70206;BME280;57593;55.896;37.396;2022-12-18T00:25:42;98923.75;;;-3.70;100.00
70206;BME280;57593;55.896;37.396;2022-12-18T00:26:22;98925.34;;;-3.64;100.00
70206;BME280;57593;55.896;37.396;2022-12-18T00:26:55;98918.34;;;-3.69;100.00
70206;BME280;57593;55.896;37.396;2022-12-18T00:27:26;98913.56;;;-3.82;100.00
70206;BME280;57593;55.896;37.396;2022-12-18T00:27:57;98919.84;;;-3.73;100.00
70206;BME280;57593;55.896;37.396;2022-12-18T00:28:27;98920.22;;;-3.59;100.00
70206;BME280;57593;55.896;37.396;2022-12-18T00:29:03;98910.13;;;-3.61;100.00
70206;BME280;57593;55.896;37.396;2022-12-18T00:29:34;98921.53;;;-3.56;100.00
70206;BME280;57593;55.896;37.396;2022-12-18T00:30:05;98922.34;;;-3.51;100.00
70206;BME280;57593;55.896;37.396;2022-12-18T00:30:36;98921.81;;;-3.53;100.00
70206;BME280;57593;55.896;37.396;2022-12-18T00:31:11;98921.81;;;-3.53;100.00
70206;BME280;57593;55.896;37.396;2022-12-18T00:31:43;98923.06;;;-3.55;100.00
70206;BME280;57593;55.896;37.396;2022-12-18T00:32:13;98916.13;;;-3.55;100.00
70206;BME280;57593;55.896;37.396;2022-12-18T00:32:44;98920.97;;;-3.58;100.00
70206;BME280;57593;55.896;37.396;2022-12-18T00:33:15;98915.13;;;-3.49;100.00
70206;BME280;57593;55.896;37.396;2022-12-18T00:33:46;98919.50;;;-3.49;100.00
70206;BME280;57593;55.896;37.396;2022-12-18T00:34:17;98914.09;;;-3.48;100.00
70206;BME280;57593;55.896;37.396;2022-12-18T00:34:47;98914.69;;;-3.73;100.00
70206;BME280;57593;55.896;37.396;2022-12-18T00:35:19;98923.03;;;-3.61;100.00
70206;BME280;57593;55.896;37.396;2022-12-18T00:35:50;98915.72;;;-3.74;100.00
70206;BME280;57593;55.896;37.396;2022-12-18T00:36:24;98919.53;;;-3.82;100.00
70206;BME280;57593;55.896;37.396;2022-12-18T00:36:56;98919.78;;;-3.83;100.00
70206;BME280;57593;55.896;37.396;2022-12-18T00:37:26;98912.91;;;-4.00;100.00
70206;BME280;57593;55.896;37.396;2022-12-18T00:37:57;98906.28;;;-3.90;100.00
70206;BME280;57593;55.896;37.396;2022-12-18T00:38:28;98910.72;;;-3.86;100.00
70206;BME280;57593;55.896;37.396;2022-12-18T00:39:02;98914.03;;;-3.90;100.00
70206;BME280;57593;55.896;37.396;2022-12-18T00:39:33;98909.94;;;-3.86;100.00
70206;BME280;57593;55.896;37.396;2022-12-18T00:40:04;98898.81;;;-3.92;100.00
70206;BME280;57593;55.896;37.396;2022-12-18T00:40:35;98909.44;;;-4.16;100.00
70206;BME280;57593;55.896;37.396;2022-12-18T00:41:06;98899.38;;;-3.85;100.00
70206;BME280;57593;55.896;37.396;2022-12-18T00:41:39;98899.78;;;-3.66;100.00
70206;BME280;57593;55.896;37.396;2022-12-18T00:42:29;98914.19;;;-3.70;100.00
70206;BME280;57593;55.896;37.396;2022-12-18T00:43:18;98906.72;;;-3.66;100.00
70206;BME280;57593;55.896;37.396;2022-12-18T00:43:49;98902.81;;;-3.74;100.00
70206;BME280;57593;55.896;37.396;2022-12-18T00:44:19;98904.47;;;-3.90;100.00
70206;BME280;57593;55.896;37.396;2022-12-18T00:44:50;98897.97;;;-3.98;100.00
70206;BME280;57593;55.896;37.396;2022-12-18T00:45:25;98902.63;;;-3.94;100.00
70206;BME280;57593;55.896;37.396;2022-12-18T00:45:55;98886.50;;;-4.12;100.00
70206;BME280;57593;55.896;37.396;2022-12-18T00:46:26;98884.75;;;-4.06;100.00
70206;BME280;57593;55.896;37.396;2022-12-18T00:46:57;98879.66;;;-3.96;100.00
70206;BME280;57593;55.896;37.396;2022-12-18T00:47:27;98891.88;;;-3.86;100.00
70206;BME280;57593;55.896;37.396;2022-12-18T00:47:58;98891.47;;;-3.73;100.00
70206;BME280;57593;55.896;37.396;2022-12-18T00:48:29;98888.97;;;-3.95;100.00
70206;BME280;57593;55.896;37.396;2022-12-18T00:48:59;98883.59;;;-3.88;100.00
70206;BME280;57593;55.896;37.396;2022-12-18T00:49:30;98891.41;;;-3.83;100.00
70206;BME280;57593;55.896;37.396;2022-12-18T00:50:01;98886.03;;;-3.76;100.00
70206;BME280;57593;55.896;37.396;2022-12-18T00:50:31;98879.50;;;-3.84;100.00
70206;BME280;57593;55.896;37.396;2022-12-18T00:51:04;98880.78;;;-3.87;100.00
70206;BME280;57593;55.896;37.396;2022-12-18T00:51:37;98885.44;;;-3.84;100.00
70206;BME280;57593;55.896;37.396;2022-12-18T00:52:07;98884.94;;;-3.81;100.00
70206;BME280;57593;55.896;37.396;2022-12-18T00:52:41;98885.38;;;-3.94;100.00
70206;BME280;57593;55.896;37.396;2022-12-18T00:53:13;98887.34;;;-3.74;100.00
70206;BME280;57593;55.896;37.396;2022-12-18T00:53:43;98884.66;;;-3.84;100.00
70206;BME280;57593;55.896;37.396;2022-12-18T00:54:14;98884.75;;;-3.74;100.00
70206;BME280;57593;55.896;37.396;2022-12-18T00:54:45;98881.13;;;-3.73;100.00
70206;BME280;57593;55.896;37.396;2022-12-18T00:55:17;98894.03;;;-3.73;100.00
70206;BME280;57593;55.896;37.396;2022-12-18T00:55:48;98894.28;;;-3.74;100.00
70206;BME280;57593;55.896;37.396;2022-12-18T00:56:22;98885.75;;;-3.80;100.00
70206;BME280;57593;55.896;37.396;2022-12-18T00:56:52;98875.06;;;-3.94;100.00
70206;BME280;57593;55.896;37.396;2022-12-18T00:57:23;98881.56;;;-3.86;100.00
70206;BME280;57593;55.896;37.396;2022-12-18T00:57:54;98885.81;;;-3.70;100.00
70206;BME280;57593;55.896;37.396;2022-12-18T00:58:24;98882.38;;;-3.81;100.00
70206;BME280;57593;55.896;37.396;2022-12-18T00:58:55;98885.78;;;-3.75;100.00
70206;BME280;57593;55.896;37.396;2022-12-18T00:59:25;98878.81;;;-3.74;100.00
70206;BME280;57593;55.896;37.396;2022-12-18T00:59:56;98878.81;;;-3.74;100.00
70206;BME280;57593;55.896;37.396;2022-12-18T01:00:27;98882.22;;;-3.69;100.00
70206;BME280;57593;55.896;37.396;2022-12-18T01:00:58;98868.00;;;-3.66;100.00
70206;BME280;57593;55.896;37.396;2022-12-18T01:01:29;98869.28;;;-3.74;100.00
70206;BME280;57593;55.896;37.396;2022-12-18T01:01:59;98881.44;;;-3.69;100.00
70206;BME280;57593;55.896;37.396;2022-12-18T01:02:30;98879.03;;;-3.81;100.00
70206;BME280;57593;55.896;37.396;2022-12-18T01:03:00;98883.19;;;-3.75;100.00
70206;BME280;57593;55.896;37.396;2022-12-18T01:03:31;98887.34;;;-3.74;100.00
70206;BME280;57593;55.896;37.396;2022-12-18T01:04:02;98876.06;;;-3.95;100.00
70206;BME280;57593;55.896;37.396;2022-12-18T01:04:34;98878.69;;;-3.90;100.00
70206;BME280;57593;55.896;37.396;2022-12-18T01:05:05;98885.25;;;-3.77;100.00
70206;BME280;57593;55.896;37.396;2022-12-18T01:05:40;98873.03;;;-3.87;100.00
70206;BME280;57593;55.896;37.396;2022-12-18T01:06:12;98880.41;;;-4.01;100.00
70206;BME280;57593;55.896;37.396;2022-12-18T01:06:43;98878.88;;;-4.02;100.00
70206;BME280;57593;55.896;37.396;2022-12-18T01:07:14;98874.19;;;-4.05;100.00
70206;BME280;57593;55.896;37.396;2022-12-18T01:07:45;98872.75;;;-3.90;100.00
70206;BME280;57593;55.896;37.396;2022-12-18T01:08:15;98878.53;;;-3.78;100.00
70206;BME280;57593;55.896;37.396;2022-12-18T01:08:47;98869.06;;;-3.67;100.00
70206;BME280;57593;55.896;37.396;2022-12-18T01:09:18;98862.34;;;-3.68;100.00
70206;BME280;57593;55.896;37.396;2022-12-18T01:09:49;98861.41;;;-3.89;100.00
70206;BME280;57593;55.896;37.396;2022-12-18T01:10:19;98865.84;;;-3.85;100.00
70206;BME280;57593;55.896;37.396;2022-12-18T01:10:50;98877.06;;;-3.69;100.00
70206;BME280;57593;55.896;37.396;2022-12-18T01:11:23;98873.94;;;-3.71;100.00
70206;BME280;57593;55.896;37.396;2022-12-18T01:11:53;98863.53;;;-3.81;100.00
70206;BME280;57593;55.896;37.396;2022-12-18T01:12:24;98860.44;;;-3.83;100.00
70206;BME280;57593;55.896;37.396;2022-12-18T01:12:55;98850.16;;;-3.73;100.00
70206;BME280;57593;55.896;37.396;2022-12-18T01:13:25;98854.22;;;-3.82;100.00
70206;BME280;57593;55.896;37.396;2022-12-18T01:13:59;98863.38;;;-3.69;100.00
70206;BME280;57593;55.896;37.396;2022-12-18T01:14:30;98862.34;;;-3.68;100.00
70206;BME280;57593;55.896;37.396;2022-12-18T01:15:00;98865.88;;;-3.80;100.00
70206;BME280;57593;55.896;37.396;2022-12-18T01:15:31;98876.53;;;-3.71;100.00
70206;BME280;57593;55.896;37.396;2022-12-18T01:16:02;98863.00;;;-3.83;100.00
70206;BME280;57593;55.896;37.396;2022-12-18T01:16:32;98873.34;;;-3.83;100.00
70206;BME280;57593;55.896;37.396;2022-12-18T01:17:03;98872.63;;;-3.73;100.00
70206;BME280;57593;55.896;37.396;2022-12-18T01:17:37;98872.09;;;-3.75;100.00
70206;BME280;57593;55.896;37.396;2022-12-18T01:18:07;98864.53;;;-3.87;100.00
70206;BME280;57593;55.896;37.396;2022-12-18T01:18:38;98874.47;;;-3.69;100.00
70206;BME280;57593;55.896;37.396;2022-12-18T01:19:09;98857.81;;;-3.88;100.00
70206;BME280;57593;55.896;37.396;2022-12-18T01:19:40;98855.72;;;-4.24;100.00
70206;BME280;57593;55.896;37.396;2022-12-18T01:20:14;98857.41;;;-4.07;100.00
70206;BME280;57593;55.896;37.396;2022-12-18T01:20:45;98855.69;;;-3.97;100.00
70206;BME280;57593;55.896;37.396;2022-12-18T01:21:16;98859.28;;;-3.98;100.00
70206;BME280;57593;55.896;37.396;2022-12-18T01:21:47;98855.94;;;-3.98;100.00
70206;BME280;57593;55.896;37.396;2022-12-18T01:22:17;98860.38;;;-3.88;100.00
70206;BME280;57593;55.896;37.396;2022-12-18T01:22:48;98847.72;;;-3.90;100.00
70206;BME280;57593;55.896;37.396;2022-12-18T01:23:19;98846.78;;;-3.78;100.00
70206;BME280;57593;55.896;37.396;2022-12-18T01:23:54;98860.44;;;-3.83;100.00
70206;BME280;57593;55.896;37.396;2022-12-18T01:24:27;98860.13;;;-3.87;100.00
70206;BME280;57593;55.896;37.396;2022-12-18T01:24:57;98858.38;;;-3.81;100.00
70206;BME280;57593;55.896;37.396;2022-12-18T01:25:28;98856.31;;;-3.79;100.00
70206;BME280;57593;55.896;37.396;2022-12-18T01:26:04;98854.44;;;-3.89;100.00
70206;BME280;57593;55.896;37.396;2022-12-18T01:26:35;98856.81;;;-3.82;100.00
70206;BME280;57593;55.896;37.396;2022-12-18T01:27:06;98855.34;;;-3.73;100.00
70206;BME280;57593;55.896;37.396;2022-12-18T01:27:37;98848.63;;;-3.74;100.00
70206;BME280;57593;55.896;37.396;2022-12-18T01:28:08;98857.56;;;-3.87;100.00
70206;BME280;57593;55.896;37.396;2022-12-18T01:28:39;98862.53;;;-3.80;100.00
70206;BME280;57593;55.896;37.396;2022-12-18T01:29:10;98851.25;;;-3.69;100.00
70206;BME280;57593;55.896;37.396;2022-12-18T01:29:41;98850.41;;;-3.74;100.00
70206;BME280;57593;55.896;37.396;2022-12-18T01:30:11;98856.81;;;-3.82;100.00
70206;BME280;57593;55.896;37.396;2022-12-18T01:30:42;98858.88;;;-3.84;100.00
70206;BME280;57593;55.896;37.396;2022-12-18T01:31:27;98849.56;;;-3.85;100.00
70206;BME280;57593;55.896;37.396;2022-12-18T01:31:58;98856.31;;;-3.79;100.00
70206;BME280;57593;55.896;37.396;2022-12-18T01:32:30;98855.97;;;-3.93;100.00
70206;BME280;57593;55.896;37.396;2022-12-18T01:33:01;98856.25;;;-3.89;100.00
70206;BME280;57593;55.896;37.396;2022-12-18T01:33:31;98849.81;;;-3.87;100.00
70206;BME280;57593;55.896;37.396;2022-12-18T01:34:04;98854.31;;;-4.04;100.00
70206;BME280;57593;55.896;37.396;2022-12-18T01:34:36;98850.72;;;-4.03;100.00
70206;BME280;57593;55.896;37.396;2022-12-18T01:35:08;98856.44;;;-3.96;100.00
70206;BME280;57593;55.896;37.396;2022-12-18T01:35:42;98855.09;;;-4.04;100.00
70206;BME280;57593;55.896;37.396;2022-12-18T01:36:21;98848.66;;;-4.06;100.00
70206;BME280;57593;55.896;37.396;2022-12-18T01:36:52;98842.84;;;-4.24;100.00
70206;BME280;57593;55.896;37.396;2022-12-18T01:37:23;98850.69;;;-4.08;100.00
70206;BME280;57593;55.896;37.396;2022-12-18T01:37:55;98836.34;;;-4.26;100.00
70206;BME280;57593;55.896;37.396;2022-12-18T01:38:25;98838.41;;;-4.28;100.00
70206;BME280;57593;55.896;37.396;2022-12-18T01:38:56;98846.34;;;-4.03;100.00
70206;BME280;57593;55.896;37.396;2022-12-18T01:39:27;98836.91;;;-4.19;100.00
70206;BME280;57593;55.896;37.396;2022-12-18T01:39:58;98823.13;;;-4.35;100.00
70206;BME280;57593;55.896;37.396;2022-12-18T01:40:29;98842.63;;;-4.44;100.00
70206;BME280;57593;55.896;37.396;2022-12-18T01:41:01;98830.47;;;-4.49;100.00
70206;BME280;57593;55.896;37.396;2022-12-18T01:41:33;98841.72;;;-4.33;100.00
70206;BME280;57593;55.896;37.396;2022-12-18T01:42:23;98842.63;;;-4.17;100.00
70206;BME280;57593;55.896;37.396;2022-12-18T01:42:54;98833.34;;;-4.13;100.00
70206;BME280;57593;55.896;37.396;2022-12-18T01:43:44;98836.16;;;-4.20;100.00
70206;BME280;57593;55.896;37.396;2022-12-18T01:45:41;98831.97;;;-4.26;100.00
70206;BME280;57593;55.896;37.396;2022-12-18T01:46:13;98831.59;;;-4.40;100.00
70206;BME280;57593;55.896;37.396;2022-12-18T01:46:44;98842.09;;;-4.46;100.00
70206;BME280;57593;55.896;37.396;2022-12-18T01:47:20;98827.88;;;-4.49;100.00
70206;BME280;57593;55.896;37.396;2022-12-18T01:48:07;98831.50;;;-4.50;100.00
70206;BME280;57593;55.896;37.396;2022-12-18T01:48:39;98832.72;;;-4.58;100.00
70206;BME280;57593;55.896;37.396;2022-12-18T01:49:10;98836.09;;;-4.52;100.00
70206;BME280;57593;55.896;37.396;2022-12-18T01:49:41;98837.44;;;-4.49;100.00
70206;BME280;57593;55.896;37.396;2022-12-18T01:50:24;98841.00;;;-4.28;100.00
70206;BME280;57593;55.896;37.396;2022-12-18T01:51:00;98823.84;;;-4.40;100.00
70206;BME280;57593;55.896;37.396;2022-12-18T01:51:31;98832.03;;;-4.48;100.00
70206;BME280;57593;55.896;37.396;2022-12-18T01:52:02;98832.66;;;-4.36;100.00
70206;BME280;57593;55.896;37.396;2022-12-18T01:52:33;98836.97;;;-4.41;100.00
70206;BME280;57593;55.896;37.396;2022-12-18T01:53:10;98849.06;;;-4.47;100.00
70206;BME280;57593;55.896;37.396;2022-12-18T01:53:43;98844.72;;;-4.41;100.00
70206;BME280;57593;55.896;37.396;2022-12-18T01:54:14;98843.00;;;-4.30;100.00
70206;BME280;57593;55.896;37.396;2022-12-18T01:54:45;98839.25;;;-4.18;100.00
70206;BME280;57593;55.896;37.396;2022-12-18T01:55:19;98840.69;;;-4.32;100.00
70206;BME280;57593;55.896;37.396;2022-12-18T01:55:53;98850.13;;;-4.16;100.00
70206;BME280;57593;55.896;37.396;2022-12-18T01:56:25;98851.88;;;-4.21;100.00
70206;BME280;57593;55.896;37.396;2022-12-18T01:56:56;98839.38;;;-4.35;100.00
70206;BME280;57593;55.896;37.396;2022-12-18T01:57:28;98840.88;;;-4.39;100.00
70206;BME280;57593;55.896;37.396;2022-12-18T01:58:00;98837.81;;;-4.36;100.00
70206;BME280;57593;55.896;37.396;2022-12-18T01:58:48;98832.94;;;-4.32;100.00
70206;BME280;57593;55.896;37.396;2022-12-18T01:59:21;98840.88;;;-4.39;100.00
70206;BME280;57593;55.896;37.396;2022-12-18T01:59:53;98853.53;;;-4.37;100.00
70206;BME280;57593;55.896;37.396;2022-12-18T02:00:27;98847.38;;;-4.36;100.00
70206;BME280;57593;55.896;37.396;2022-12-18T02:00:58;98840.13;;;-4.39;100.00
70206;BME280;57593;55.896;37.396;2022-12-18T02:01:30;98841.47;;;-4.31;100.00
70206;BME280;57593;55.896;37.396;2022-12-18T02:02:06;98845.06;;;-4.32;100.00
70206;BME280;57593;55.896;37.396;2022-12-18T02:02:37;98840.13;;;-4.39;100.00
70206;BME280;57593;55.896;37.396;2022-12-18T02:03:09;98839.88;;;-4.38;100.00
70206;BME280;57593;55.896;37.396;2022-12-18T02:03:44;98843.66;;;-4.45;100.00
70206;BME280;57593;55.896;37.396;2022-12-18T02:04:25;98834.56;;;-4.53;100.00
70206;BME280;57593;55.896;37.396;2022-12-18T02:04:58;98842.06;;;-4.52;100.00
70206;BME280;57593;55.896;37.396;2022-12-18T02:06:43;98837.22;;;-4.43;100.00
70206;BME280;57593;55.896;37.396;2022-12-18T02:08:36;98837.66;;;-4.51;100.00
70206;BME280;57593;55.896;37.396;2022-12-18T02:09:15;98829.47;;;-4.48;100.00
70206;BME280;57593;55.896;37.396;2022-12-18T02:10:30;98839.84;;;-4.65;100.00
70206;BME280;57593;55.896;37.396;2022-12-18T02:11:12;98839.66;;;-4.58;100.00
70206;BME280;57593;55.896;37.396;2022-12-18T02:12:47;98832.53;;;-4.51;100.00
70206;BME280;57593;55.896;37.396;2022-12-18T02:13:42;98846.34;;;-4.62;100.00
70206;BME280;57593;55.896;37.396;2022-12-18T02:14:58;98844.75;;;-4.63;100.00
70206;BME280;57593;55.896;37.396;2022-12-18T02:15:38;98841.50;;;-4.81;100.00
70206;BME280;57593;55.896;37.396;2022-12-18T02:16:18;98847.19;;;-4.79;100.00
70206;BME280;57593;55.896;37.396;2022-12-18T02:17:18;98830.06;;;-4.90;100.00
70206;BME280;57593;55.896;37.396;2022-12-18T02:17:56;98832.13;;;-4.65;100.00
70206;BME280;57593;55.896;37.396;2022-12-18T02:18:33;98844.16;;;-4.71;100.00
70206;BME280;57593;55.896;37.396;2022-12-18T02:20:20;98833.78;;;-4.81;100.00
70206;BME280;57593;55.896;37.396;2022-12-18T02:22:54;98845.72;;;-4.97;100.00
70206;BME280;57593;55.896;37.396;2022-12-18T02:24:13;98854.50;;;-4.93;100.00
70206;BME280;57593;55.896;37.396;2022-12-18T02:25:03;98851.91;;;-4.93;100.00
70206;BME280;57593;55.896;37.396;2022-12-18T02:27:03;98849.47;;;-4.82;100.00
70206;BME280;57593;55.896;37.396;2022-12-18T02:27:37;98848.03;;;-4.73;100.00
70206;BME280;57593;55.896;37.396;2022-12-18T02:28:13;98850.16;;;-4.65;100.00
70206;BME280;57593;55.896;37.396;2022-12-18T02:28:59;98849.44;;;-4.60;100.00
70206;BME280;57593;55.896;37.396;2022-12-18T02:29:38;98856.94;;;-4.59;100.00
70206;BME280;57593;55.896;37.396;2022-12-18T02:30:10;98851.09;;;-4.76;100.00
70206;BME280;57593;55.896;37.396;2022-12-18T02:30:42;98866.25;;;-4.80;100.00
70206;BME280;57593;55.896;37.396;2022-12-18T02:31:19;98859.28;;;-4.79;100.00
70206;BME280;57593;55.896;37.396;2022-12-18T02:31:56;98861.25;;;-4.87;100.00
70206;BME280;57593;55.896;37.396;2022-12-18T02:32:34;98844.03;;;-4.86;100.00
70206;BME280;57593;55.896;37.396;2022-12-18T02:33:07;98859.28;;;-4.79;100.00
70206;BME280;57593;55.896;37.396;2022-12-18T02:33:40;98848.75;;;-4.78;100.00
70206;BME280;57593;55.896;37.396;2022-12-18T02:34:13;98853.47;;;-4.70;100.00
70206;BME280;57593;55.896;37.396;2022-12-18T02:34:46;98849.41;;;-4.88;100.00
70206;BME280;57593;55.896;37.396;2022-12-18T02:35:28;98840.66;;;-4.87;100.00
70206;BME280;57593;55.896;37.396;2022-12-18T02:36:04;98842.81;;;-4.78;100.00
70206;BME280;57593;55.896;37.396;2022-12-18T02:36:38;98844.19;;;-4.93;100.00
70206;BME280;57593;55.896;37.396;2022-12-18T02:37:13;98853.25;;;-4.90;100.00
70206;BME280;57593;55.896;37.396;2022-12-18T02:37:46;98847.47;;;-4.97;100.00
70206;BME280;57593;55.896;37.396;2022-12-18T02:38:17;98840.72;;;-4.81;100.00
70206;BME280;57593;55.896;37.396;2022-12-18T02:38:51;98837.00;;;-4.68;100.00
70206;BME280;57593;55.896;37.396;2022-12-18T02:39:25;98832.09;;;-4.70;100.00
70206;BME280;57593;55.896;37.396;2022-12-18T02:40:03;98837.44;;;-4.77;100.00
70206;BME280;57593;55.896;37.396;2022-12-18T02:40:37;98842.63;;;-4.72;100.00
70206;BME280;57593;55.896;37.396;2022-12-18T02:41:10;98839.09;;;-4.65;100.00
70206;BME280;57593;55.896;37.396;2022-12-18T02:41:41;98834.53;;;-4.80;100.00
70206;BME280;57593;55.896;37.396;2022-12-18T02:42:12;98834.72;;;-4.87;100.00
70206;BME280;57593;55.896;37.396;2022-12-18T02:42:44;98836.28;;;-4.86;100.00
70206;BME280;57593;55.896;37.396;2022-12-18T02:43:21;98841.97;;;-4.84;100.00
70206;BME280;57593;55.896;37.396;2022-12-18T02:44:01;98840.00;;;-4.77;100.00
70206;BME280;57593;55.896;37.396;2022-12-18T02:44:42;98840.09;;;-4.66;100.00
70206;BME280;57593;55.896;37.396;2022-12-18T02:45:14;98832.75;;;-4.53;100.00
70206;BME280;57593;55.896;37.396;2022-12-18T02:45:48;98839.56;;;-4.68;100.00
70206;BME280;57593;55.896;37.396;2022-12-18T02:46:32;98845.88;;;-4.54;100.00
70206;BME280;57593;55.896;37.396;2022-12-18T02:47:10;98835.13;;;-4.46;100.00
70206;BME280;57593;55.896;37.396;2022-12-18T02:47:43;98842.09;;;-4.46;100.00
70206;BME280;57593;55.896;37.396;2022-12-18T02:48:18;98843.84;;;-4.52;100.00
70206;BME280;57593;55.896;37.396;2022-12-18T02:48:55;98851.25;;;-4.61;100.00
70206;BME280;57593;55.896;37.396;2022-12-18T02:49:36;98848.34;;;-4.64;100.00
70206;BME280;57593;55.896;37.396;2022-12-18T02:50:33;98849.69;;;-4.62;100.00
70206;BME280;57593;55.896;37.396;2022-12-18T02:51:50;98840.66;;;-4.87;100.00
70206;BME280;57593;55.896;37.396;2022-12-18T02:52:47;98832.69;;;-4.85;100.00
70206;BME280;57593;55.896;37.396;2022-12-18T02:53:26;98845.28;;;-4.89;100.00
70206;BME280;57593;55.896;37.396;2022-12-18T02:54:10;98835.50;;;-4.87;100.00
70206;BME280;57593;55.896;37.396;2022-12-18T02:54:55;98843.94;;;-4.69;100.00
70206;BME280;57593;55.896;37.396;2022-12-18T02:56:54;98842.09;;;-4.46;100.00
70206;BME280;57593;55.896;37.396;2022-12-18T02:57:42;98866.50;;;-4.54;100.00
70206;BME280;57593;55.896;37.396;2022-12-18T02:59:01;98847.72;;;-4.77;100.00
70206;BME280;57593;55.896;37.396;2022-12-18T03:00:08;98842.25;;;-4.80;100.00
70206;BME280;57593;55.896;37.396;2022-12-18T03:00:48;98849.75;;;-4.79;100.00
70206;BME280;57593;55.896;37.396;2022-12-18T03:02:06;98836.34;;;-4.81;100.00
70206;BME280;57593;55.896;37.396;2022-12-18T03:03:26;98839.69;;;-4.80;100.00
70206;BME280;57593;55.896;37.396;2022-12-18T03:04:09;98848.31;;;-4.70;100.00
70206;BME280;57593;55.896;37.396;2022-12-18T03:04:53;98853.28;;;-4.85;100.00
70206;BME280;57593;55.896;37.396;2022-12-18T03:05:39;98834.38;;;-4.96;100.00
70206;BME280;57593;55.896;37.396;2022-12-18T03:06:58;98835.13;;;-5.17;100.00
70206;BME280;57593;55.896;37.396;2022-12-18T03:07:36;98824.84;;;-5.17;100.00
70206;BME280;57593;55.896;37.396;2022-12-18T03:08:39;98836.47;;;-4.93;100.00
70206;BME280;57593;55.896;37.396;2022-12-18T03:09:17;98840.41;;;-4.85;100.00
70206;BME280;57593;55.896;37.396;2022-12-18T03:09:53;98835.81;;;-4.83;100.00
70206;BME280;57593;55.896;37.396;2022-12-18T03:10:28;98839.16;;;-4.82;100.00
70206;BME280;57593;55.896;37.396;2022-12-18T03:11:07;98832.09;;;-4.92;100.00